Time;durP1;ratioP1;P1;durP2;ratioP2;P2;SDS_P1;SDS_P2;PMS_P1;PMS_P2;Temp;Humidity;BMP_temperature;BMP_pressure;BME280_temperature;BME280_humidity;BME280_pressure;Samples;Min_cycle;Max_cycle;Signal;HPM_P1;HPM_P2
2023/06/14 00:00:05;;;;;;;1.85;1.50;;;;;;;;;;5035366;28;20108;-82
2023/06/14 00:02:31;;;;;;;3.45;1.55;;;;;;;;;;5050584;28;20026;-81
2023/06/14 00:04:56;;;;;;;2.20;1.80;;;;;;;;;;5050696;28;20483;-81
2023/06/14 00:07:36;;;;;;;1.88;1.77;;;;;;;;;;5051207;28;20034;-81
2023/06/14 00:10:03;;;;;;;1.63;1.52;;;;;;;;;;5033856;28;20034;-81
2023/06/14 00:12:28;;;;;;;3.03;1.77;;;;;;;;;;5035186;28;20033;-81
2023/06/14 00:14:53;;;;;;;4.32;1.88;;;;;;;;;;5035260;28;20036;-80
2023/06/14 00:17:19;;;;;;;3.00;1.60;;;;;;;;;;5035069;28;20030;-81
2023/06/14 00:19:44;;;;;;;3.72;1.90;;;;;;;;;;5034987;28;20404;-80
2023/06/14 00:22:10;;;;;;;2.78;1.80;;;;;;;;;;5035358;28;20256;-80
2023/06/14 00:24:35;;;;;;;3.00;1.80;;;;;;;;;;5035284;28;20064;-80
2023/06/14 00:27:01;;;;;;;2.38;1.83;;;;;;;;;;5035295;28;20030;-79
2023/06/14 00:29:26;;;;;;;2.08;1.80;;;;;;;;;;5034901;28;20108;-80
2023/06/14 00:31:51;;;;;;;2.03;1.60;;;;;;;;;;5035044;28;20033;-80
2023/06/14 00:34:17;;;;;;;2.20;1.88;;;;;;;;;;5050072;28;20476;-80
2023/06/14 00:36:42;;;;;;;2.30;1.50;;;;;;;;;;5034746;28;20068;-80
2023/06/14 00:39:09;;;;;;;3.33;1.67;;;;;;;;;;5034818;28;20052;-81
2023/06/14 00:41:35;;;;;;;3.25;1.83;;;;;;;;;;5049917;28;20029;-81
2023/06/14 00:44:00;;;;;;;2.35;1.80;;;;;;;;;;5033136;28;20568;-81
2023/06/14 00:46:25;;;;;;;3.25;1.90;;;;;;;;;;5034795;28;20033;-80
2023/06/14 00:48:51;;;;;;;1.92;1.63;;;;;;;;;;5034342;28;20030;-80
2023/06/14 00:51:16;;;;;;;3.15;1.60;;;;;;;;;;5033018;28;20029;-81
2023/06/14 00:53:46;;;;;;;3.35;1.92;;;;;;;;;;5049803;28;20038;-81
2023/06/14 00:56:13;;;;;;;3.25;1.60;;;;;;;;;;5049239;28;20495;-78
2023/06/14 00:58:38;;;;;;;2.30;1.42;;;;;;;;;;5034519;28;20029;-80
2023/06/14 01:01:04;;;;;;;2.15;1.65;;;;;;;;;;5050184;28;20091;-80
2023/06/14 01:03:30;;;;;;;2.13;1.60;;;;;;;;;;5034158;28;20129;-80
2023/06/14 01:06:26;;;;;;;3.10;1.60;;;;;;;;;;5032845;28;20033;-79
2023/06/14 01:09:01;;;;;;;3.33;1.70;;;;;;;;;;5048516;28;20022;-80
2023/06/14 01:11:36;;;;;;;1.92;1.63;;;;;;;;;;5034444;28;20036;-80
2023/06/14 01:14:03;;;;;;;1.92;1.73;;;;;;;;;;5032945;28;20108;-80
2023/06/14 01:16:29;;;;;;;3.05;1.70;;;;;;;;;;5033826;28;20033;-81
2023/06/14 01:18:57;;;;;;;4.00;1.55;;;;;;;;;;5032726;28;20507;-80
2023/06/14 01:21:24;;;;;;;1.98;1.65;;;;;;;;;;5048814;28;20029;-80
2023/06/14 01:23:52;;;;;;;1.92;1.50;;;;;;;;;;5032916;28;20033;-80
2023/06/14 01:26:20;;;;;;;3.35;1.75;;;;;;;;;;5033752;28;20029;-80
2023/06/14 01:28:48;;;;;;;2.75;1.63;;;;;;;;;;5032365;28;20031;-80
2023/06/14 01:31:17;;;;;;;3.25;1.77;;;;;;;;;;5049026;28;20029;-79
2023/06/14 01:33:42;;;;;;;3.00;1.73;;;;;;;;;;5049207;28;20048;-79
2023/06/14 01:36:08;;;;;;;2.88;1.80;;;;;;;;;;5049181;28;20142;-79
2023/06/14 01:38:33;;;;;;;1.77;1.67;;;;;;;;;;5048808;28;20378;-80
2023/06/14 01:41:00;;;;;;;3.50;1.88;;;;;;;;;;5032434;28;20029;-79
2023/06/14 01:43:27;;;;;;;3.20;1.90;;;;;;;;;;5032909;28;20362;-80
2023/06/14 01:45:53;;;;;;;2.38;1.60;;;;;;;;;;5048057;28;20029;-80
2023/06/14 01:48:19;;;;;;;2.17;1.83;;;;;;;;;;5032206;28;20520;-79
2023/06/14 01:50:45;;;;;;;1.60;1.50;;;;;;;;;;5033359;28;20025;-79
2023/06/14 01:53:10;;;;;;;2.65;1.55;;;;;;;;;;5048913;28;20495;-79
2023/06/14 01:55:43;;;;;;;2.00;1.50;;;;;;;;;;5032093;28;20036;-79
2023/06/14 01:58:08;;;;;;;2.15;1.35;;;;;;;;;;5032034;28;20033;-79
2023/06/14 02:00:34;;;;;;;1.77;1.67;;;;;;;;;;5048675;28;20078;-79
2023/06/14 02:03:00;;;;;;;2.47;1.63;;;;;;;;;;5048576;28;20025;-80
2023/06/14 02:05:26;;;;;;;3.22;1.70;;;;;;;;;;5033208;28;20040;-79
2023/06/14 02:07:51;;;;;;;1.70;1.50;;;;;;;;;;5033492;28;20052;-79
2023/06/14 02:10:17;;;;;;;1.77;1.55;;;;;;;;;;5032275;28;20041;-79
2023/06/14 02:12:43;;;;;;;4.20;1.70;;;;;;;;;;5048831;28;20025;-79
2023/06/14 02:15:09;;;;;;;2.92;1.60;;;;;;;;;;5031854;28;20083;-79
2023/06/14 02:17:35;;;;;;;3.65;1.63;;;;;;;;;;5033034;28;20022;-79
2023/06/14 02:20:04;;;;;;;2.30;1.63;;;;;;;;;;5048541;28;20029;-79
2023/06/14 02:22:30;;;;;;;3.97;1.90;;;;;;;;;;5031758;28;20080;-79
2023/06/14 02:24:55;;;;;;;2.35;1.80;;;;;;;;;;5033333;28;20034;-79
2023/06/14 02:27:20;;;;;;;2.78;2.10;;;;;;;;;;5033109;28;20032;-79
2023/06/14 02:29:46;;;;;;;2.47;1.80;;;;;;;;;;5033486;28;20026;-79
2023/06/14 02:32:11;;;;;;;2.30;1.70;;;;;;;;;;5031773;28;20079;-79
2023/06/14 02:34:36;;;;;;;2.15;1.67;;;;;;;;;;5031690;28;20424;-79
2023/06/14 02:37:05;;;;;;;2.70;1.40;;;;;;;;;;5031479;28;20041;-79
2023/06/14 02:39:30;;;;;;;3.13;1.70;;;;;;;;;;5033087;28;20040;-79
2023/06/14 02:41:56;;;;;;;3.83;1.52;;;;;;;;;;5015282;28;20034;-79
2023/06/14 02:44:26;;;;;;;2.33;1.63;;;;;;;;;;5032782;28;20054;-79
2023/06/14 02:46:52;;;;;;;2.20;1.58;;;;;;;;;;5048381;28;20430;-80
2023/06/14 02:49:17;;;;;;;2.33;1.63;;;;;;;;;;5032850;28;20029;-79
2023/06/14 02:51:43;;;;;;;2.30;1.65;;;;;;;;;;5048090;28;20025;-79
2023/06/14 02:54:08;;;;;;;2.17;1.67;;;;;;;;;;5033075;28;20453;-79
2023/06/14 02:56:33;;;;;;;2.85;1.60;;;;;;;;;;5048874;28;20030;-79
2023/06/14 02:59:00;;;;;;;1.83;1.38;;;;;;;;;;5036808;28;20380;-81
2023/06/14 03:01:34;;;;;;;2.03;1.70;;;;;;;;;;5035247;28;20034;-80
2023/06/14 03:04:03;;;;;;;4.65;1.60;;;;;;;;;;5051334;28;20052;-80
2023/06/14 03:06:31;;;;;;;1.70;1.60;;;;;;;;;;5051690;28;20060;-80
2023/06/14 03:09:00;;;;;;;2.08;1.75;;;;;;;;;;5036570;28;20071;-80
2023/06/14 03:11:26;;;;;;;2.10;1.60;;;;;;;;;;5051628;28;20064;-80
2023/06/14 03:13:52;;;;;;;2.17;1.50;;;;;;;;;;5051630;28;20041;-80
2023/06/14 03:16:23;;;;;;;2.45;1.60;;;;;;;;;;5051487;28;20022;-80
2023/06/14 03:18:52;;;;;;;3.67;1.80;;;;;;;;;;5036229;28;20488;-80
2023/06/14 03:21:21;;;;;;;2.25;1.67;;;;;;;;;;5051564;28;20065;-80
2023/06/14 03:23:47;;;;;;;3.25;1.70;;;;;;;;;;5051538;28;20033;-80
2023/06/14 03:26:13;;;;;;;1.48;1.30;;;;;;;;;;5036028;28;20083;-80
2023/06/14 03:28:40;;;;;;;2.72;1.60;;;;;;;;;;5051127;28;20025;-80
2023/06/14 03:31:05;;;;;;;3.67;1.75;;;;;;;;;;5034808;28;20030;-79
2023/06/14 03:33:30;;;;;;;2.58;1.65;;;;;;;;;;5035900;28;20360;-79
2023/06/14 03:35:56;;;;;;;2.78;1.50;;;;;;;;;;5034442;28;20030;-79
2023/06/14 03:38:22;;;;;;;1.70;1.55;;;;;;;;;;5051315;28;20499;-79
2023/06/14 03:40:47;;;;;;;2.38;1.63;;;;;;;;;;5051166;28;20034;-79
2023/06/14 03:43:12;;;;;;;3.83;1.50;;;;;;;;;;5034662;28;20041;-79
2023/06/14 03:45:38;;;;;;;2.08;1.60;;;;;;;;;;5050916;28;20057;-79
2023/06/14 03:48:06;;;;;;;6.93;1.92;;;;;;;;;;5035637;28;20057;-79
2023/06/14 03:50:32;;;;;;;1.83;1.40;;;;;;;;;;5050639;28;20080;-79
2023/06/14 03:52:57;;;;;;;1.98;1.60;;;;;;;;;;5035576;28;20427;-80
2023/06/14 03:55:25;;;;;;;4.82;1.35;;;;;;;;;;5035643;28;20029;-80
2023/06/14 03:57:51;;;;;;;3.53;1.60;;;;;;;;;;5034986;28;20068;-80
2023/06/14 04:00:17;;;;;;;1.77;1.40;;;;;;;;;;5034422;28;20030;-79
2023/06/14 04:02:44;;;;;;;2.65;1.60;;;;;;;;;;5051151;28;20112;-80
2023/06/14 04:05:09;;;;;;;1.83;1.60;;;;;;;;;;5034326;28;20396;-81
2023/06/14 04:07:39;;;;;;;2.72;1.73;;;;;;;;;;5051221;28;20032;-79
2023/06/14 04:10:06;;;;;;;3.10;1.63;;;;;;;;;;5033717;28;20037;-79
2023/06/14 04:12:31;;;;;;;1.73;1.60;;;;;;;;;;5050770;28;20108;-79
2023/06/14 04:14:57;;;;;;;2.05;1.77;;;;;;;;;;5034052;28;20098;-79
2023/06/14 04:17:22;;;;;;;2.83;1.52;;;;;;;;;;5033792;28;20395;-79
2023/06/14 04:19:47;;;;;;;4.57;2.10;;;;;;;;;;5050926;28;20064;-77
2023/06/14 04:22:13;;;;;;;7.25;2.63;;;;;;;;;;5050564;28;20048;-77
2023/06/14 04:24:38;;;;;;;5.18;2.58;;;;;;;;;;5035460;28;20068;-77
2023/06/14 04:27:04;;;;;;;8.88;3.20;;;;;;;;;;5033827;28;20045;-77
2023/06/14 04:29:31;;;;;;;5.55;2.90;;;;;;;;;;5034375;28;20481;-76
2023/06/14 04:31:59;;;;;;;5.45;2.70;;;;;;;;;;5034956;28;20540;-77
2023/06/14 04:34:33;;;;;;;5.93;2.88;;;;;;;;;;5033754;28;20032;-78
2023/06/14 04:37:01;;;;;;;5.80;2.85;;;;;;;;;;5049681;28;20053;-79
2023/06/14 04:39:27;;;;;;;6.88;2.92;;;;;;;;;;5035135;28;20056;-78
2023/06/14 04:41:56;;;;;;;6.75;2.35;;;;;;;;;;5050326;28;20361;-79
2023/06/14 04:44:29;;;;;;;4.40;2.80;;;;;;;;;;5033392;28;20053;-79
2023/06/14 04:46:58;;;;;;;8.85;2.90;;;;;;;;;;5049495;28;20034;-78
2023/06/14 04:49:24;;;;;;;5.25;2.60;;;;;;;;;;5017159;28;20026;-77
2023/06/14 04:51:57;;;;;;;7.72;3.05;;;;;;;;;;5050174;28;20026;-78
2023/06/14 04:54:24;;;;;;;9.57;2.90;;;;;;;;;;5049715;28;20029;-78
2023/06/14 04:56:50;;;;;;;6.90;2.70;;;;;;;;;;5017287;28;20128;-79
2023/06/14 04:59:17;;;;;;;8.55;2.58;;;;;;;;;;5050648;28;20452;-79
2023/06/14 05:01:47;;;;;;;12.27;4.15;;;;;;;;;;5034583;28;20113;-78
2023/06/14 05:04:13;;;;;;;21.60;6.07;;;;;;;;;;5033684;28;20033;-77
2023/06/14 05:06:38;;;;;;;26.38;8.10;;;;;;;;;;5050273;28;20519;-77
2023/06/14 05:09:03;;;;;;;27.00;7.63;;;;;;;;;;5050125;28;20499;-77
2023/06/14 05:11:29;;;;;;;23.27;6.78;;;;;;;;;;5050691;28;20037;-78
2023/06/14 05:13:54;;;;;;;24.20;6.88;;;;;;;;;;5035067;28;20038;-79
2023/06/14 05:16:22;;;;;;;19.17;6.35;;;;;;;;;;5049811;28;20033;-78
2023/06/14 05:18:48;;;;;;;19.38;5.28;;;;;;;;;;5033114;28;20100;-78
2023/06/14 05:21:17;;;;;;;14.68;5.60;;;;;;;;;;5034388;28;20460;-79
2023/06/14 05:23:44;;;;;;;22.02;5.82;;;;;;;;;;5017562;28;20073;-79
2023/06/14 05:26:10;;;;;;;17.95;6.22;;;;;;;;;;5034963;28;20029;-79
2023/06/14 05:28:36;;;;;;;17.42;5.80;;;;;;;;;;5050409;28;20022;-78
2023/06/14 05:31:01;;;;;;;16.90;5.60;;;;;;;;;;5033851;28;20503;-78
2023/06/14 05:33:26;;;;;;;19.33;5.25;;;;;;;;;;5049018;28;20029;-78
2023/06/14 05:35:52;;;;;;;17.27;5.70;;;;;;;;;;5049558;28;20036;-79
2023/06/14 05:38:17;;;;;;;19.50;5.72;;;;;;;;;;5034764;28;20484;-78
2023/06/14 05:40:43;;;;;;;15.95;5.43;;;;;;;;;;5034181;28;20033;-78
2023/06/14 05:43:08;;;;;;;13.35;5.07;;;;;;;;;;5037576;28;20034;-78
2023/06/14 05:45:34;;;;;;;14.60;5.65;;;;;;;;;;5052388;28;20049;-78
2023/06/14 05:47:59;;;;;;;13.43;5.90;;;;;;;;;;5034850;28;20038;-78
2023/06/14 05:50:24;;;;;;;13.75;4.80;;;;;;;;;;5054896;28;20079;-78
2023/06/14 05:52:50;;;;;;;17.85;4.50;;;;;;;;;;5055590;28;20033;-78
2023/06/14 05:55:16;;;;;;;17.10;5.03;;;;;;;;;;5041502;28;20021;-78
2023/06/14 05:57:42;;;;;;;16.25;4.82;;;;;;;;;;5051542;28;20033;-78
2023/06/14 06:00:14;;;;;;;12.00;4.50;;;;;;;;;;5049238;28;20075;-78
2023/06/14 06:02:40;;;;;;;14.60;4.60;;;;;;;;;;5032628;28;20547;-78
2023/06/14 06:05:06;;;;;;;14.98;4.57;;;;;;;;;;5033792;28;20060;-78
2023/06/14 06:07:31;;;;;;;13.98;4.40;;;;;;;;;;5032207;28;20485;-79
2023/06/14 06:09:56;;;;;;;11.57;4.43;;;;;;;;;;5048960;28;20094;-78
2023/06/14 06:12:22;;;;;;;15.50;4.75;;;;;;;;;;5032026;28;20488;-78
2023/06/14 06:14:47;;;;;;;13.52;4.18;;;;;;;;;;5032180;28;20029;-78
2023/06/14 06:17:12;;;;;;;10.60;4.15;;;;;;;;;;5034679;28;20029;-78
2023/06/14 06:19:38;;;;;;;8.68;3.65;;;;;;;;;;5049279;28;20435;-79
2023/06/14 06:22:06;;;;;;;12.68;4.10;;;;;;;;;;5033403;28;20151;-78
2023/06/14 06:24:31;;;;;;;9.05;4.00;;;;;;;;;;5048292;28;20033;-78
2023/06/14 06:26:57;;;;;;;8.27;3.47;;;;;;;;;;5031859;28;20083;-78
2023/06/14 06:29:22;;;;;;;10.45;4.05;;;;;;;;;;5048580;28;20120;-79
2023/06/14 06:31:51;;;;;;;8.85;3.67;;;;;;;;;;5049806;28;20518;-79
2023/06/14 06:34:16;;;;;;;8.48;2.95;;;;;;;;;;5037793;28;20087;-79
2023/06/14 06:36:42;;;;;;;10.32;3.70;;;;;;;;;;5035818;28;20480;-79
2023/06/14 06:39:10;;;;;;;8.00;3.78;;;;;;;;;;5035847;28;20056;-79
2023/06/14 06:41:37;;;;;;;8.00;3.10;;;;;;;;;;5052435;28;20087;-80
2023/06/14 06:44:03;;;;;;;11.95;3.55;;;;;;;;;;5035606;28;20053;-78
2023/06/14 06:46:28;;;;;;;8.65;3.45;;;;;;;;;;5037223;28;20055;-79
2023/06/14 06:48:54;;;;;;;5.88;2.72;;;;;;;;;;5037044;28;20036;-79
2023/06/14 06:51:20;;;;;;;7.97;3.13;;;;;;;;;;5035534;28;20451;-77
2023/06/14 06:53:52;;;;;;;7.13;2.80;;;;;;;;;;5035408;28;20103;-78
2023/06/14 06:56:17;;;;;;;6.75;2.22;;;;;;;;;;5035761;28;20021;-78
2023/06/14 06:58:43;;;;;;;6.63;2.20;;;;;;;;;;5035551;28;20108;-78
2023/06/14 07:01:09;;;;;;;3.88;1.83;;;;;;;;;;5035580;28;20035;-78
2023/06/14 07:03:35;;;;;;;5.13;2.40;;;;;;;;;;5037006;28;20028;-78
2023/06/14 07:06:01;;;;;;;3.75;1.80;;;;;;;;;;5035360;28;20038;-78
2023/06/14 07:08:26;;;;;;;6.65;1.80;;;;;;;;;;5052238;28;20067;-78
2023/06/14 07:10:52;;;;;;;9.30;1.60;;;;;;;;;;5052230;28;20033;-78
2023/06/14 07:13:17;;;;;;;5.97;1.50;;;;;;;;;;5035578;28;20037;-78
2023/06/14 07:15:43;;;;;;;13.52;2.22;;;;;;;;;;5035285;28;20053;-78
2023/06/14 07:18:08;;;;;;;8.43;1.80;;;;;;;;;;5051988;28;20072;-78
2023/06/14 07:20:34;;;;;;;12.07;1.90;;;;;;;;;;5035109;28;20540;-78
2023/06/14 07:23:00;;;;;;;8.88;1.90;;;;;;;;;;5036150;28;20033;-77
2023/06/14 07:25:26;;;;;;;7.38;1.77;;;;;;;;;;5052462;28;20022;-77
2023/06/14 07:27:51;;;;;;;6.57;1.70;;;;;;;;;;5051882;28;20108;-78
2023/06/14 07:30:16;;;;;;;5.72;1.73;;;;;;;;;;5034915;28;20484;-78
2023/06/14 07:32:42;;;;;;;11.30;1.90;;;;;;;;;;5052117;28;20033;-78
2023/06/14 07:35:08;;;;;;;5.32;1.90;;;;;;;;;;5035179;28;20033;-77
2023/06/14 07:37:33;;;;;;;3.88;1.80;;;;;;;;;;5034893;28;20481;-77
2023/06/14 07:39:59;;;;;;;4.43;1.83;;;;;;;;;;5035092;28;20091;-78
2023/06/14 07:42:25;;;;;;;6.88;1.50;;;;;;;;;;5052907;28;20040;-77
2023/06/14 07:44:52;;;;;;;5.22;1.48;;;;;;;;;;5050531;28;20063;-78
2023/06/14 07:47:17;;;;;;;2.30;1.58;;;;;;;;;;5035199;28;20032;-78
2023/06/14 07:49:42;;;;;;;4.80;1.80;;;;;;;;;;5034503;28;20471;-78
2023/06/14 07:52:08;;;;;;;4.25;1.60;;;;;;;;;;5051544;28;20040;-79
2023/06/14 07:54:33;;;;;;;6.35;1.85;;;;;;;;;;5036152;28;20055;-78
2023/06/14 07:57:00;;;;;;;3.45;1.85;;;;;;;;;;5051512;28;20033;-77
2023/06/14 07:59:26;;;;;;;63.28;15.93;;;;;;;;;;5035742;28;20523;-77
2023/06/14 08:01:51;;;;;;;36.10;11.77;;;;;;;;;;5034249;28;20033;-78
2023/06/14 08:04:17;;;;;;;37.47;11.20;;;;;;;;;;5035255;28;20029;-78
2023/06/14 08:06:45;;;;;;;32.80;8.77;;;;;;;;;;5033977;28;20029;-78
2023/06/14 08:09:11;;;;;;;25.50;7.55;;;;;;;;;;5017500;28;20084;-79
2023/06/14 08:11:37;;;;;;;22.02;6.05;;;;;;;;;;5034362;28;20476;-78
2023/06/14 08:14:02;;;;;;;15.55;5.50;;;;;;;;;;5035573;28;20032;-78
2023/06/14 08:16:28;;;;;;;16.13;4.63;;;;;;;;;;5050851;28;20037;-78
2023/06/14 08:18:55;;;;;;;12.57;4.00;;;;;;;;;;5035599;28;20026;-78
2023/06/14 08:21:21;;;;;;;11.68;4.18;;;;;;;;;;5052005;28;20089;-79
2023/06/14 08:23:47;;;;;;;13.40;4.45;;;;;;;;;;5035701;28;20059;-79
2023/06/14 08:26:12;;;;;;;13.23;3.83;;;;;;;;;;5035347;28;20495;-79
2023/06/14 08:28:38;;;;;;;11.20;3.60;;;;;;;;;;5050939;28;20030;-79
2023/06/14 08:31:03;;;;;;;8.95;3.10;;;;;;;;;;5036513;28;20036;-79
2023/06/14 08:33:28;;;;;;;12.85;3.67;;;;;;;;;;5050802;28;20040;-77
2023/06/14 08:35:54;;;;;;;13.70;3.25;;;;;;;;;;5024612;28;20168;-80
2023/06/14 08:38:19;;;;;;;6.15;2.40;;;;;;;;;;5029883;28;20088;-79
2023/06/14 08:40:48;;;;;;;9.82;3.05;;;;;;;;;;5032035;28;20034;-79
2023/06/14 08:43:13;;;;;;;7.75;2.35;;;;;;;;;;5033103;28;20060;-78
2023/06/14 08:45:39;;;;;;;5.88;2.58;;;;;;;;;;5034827;28;20068;-78
2023/06/14 08:48:07;;;;;;;8.25;2.55;;;;;;;;;;5049873;28;20346;-78
2023/06/14 08:50:33;;;;;;;5.93;2.20;;;;;;;;;;5049971;28;20087;-80
2023/06/14 08:53:02;;;;;;;7.80;2.20;;;;;;;;;;5049062;28;20502;-80
2023/06/14 08:55:32;;;;;;;6.38;2.47;;;;;;;;;;5034678;28;20076;-78
2023/06/14 08:57:58;;;;;;;3.70;2.00;;;;;;;;;;5048592;28;20025;-77
2023/06/14 09:00:24;;;;;;;10.80;1.88;;;;;;;;;;5032497;28;20095;-77
2023/06/14 09:02:57;;;;;;;6.07;1.98;;;;;;;;;;5048970;28;20132;-77
2023/06/14 09:05:24;;;;;;;3.17;1.75;;;;;;;;;;5048377;28;20113;-78
2023/06/14 09:07:50;;;;;;;5.10;1.80;;;;;;;;;;5032160;28;20022;-78
2023/06/14 09:10:16;;;;;;;4.18;2.10;;;;;;;;;;5032113;28;20040;-77
2023/06/14 09:12:42;;;;;;;3.53;1.58;;;;;;;;;;5033368;28;20029;-77
2023/06/14 09:15:08;;;;;;;5.57;1.85;;;;;;;;;;5032699;28;20079;-78
2023/06/14 09:17:38;;;;;;;4.10;1.67;;;;;;;;;;5035552;28;20037;-78
2023/06/14 09:20:06;;;;;;;3.05;1.80;;;;;;;;;;5035592;28;20029;-76
2023/06/14 09:22:32;;;;;;;3.60;1.60;;;;;;;;;;5048203;28;20506;-77
2023/06/14 09:24:58;;;;;;;3.65;1.67;;;;;;;;;;5033527;28;20061;-78
2023/06/14 09:27:26;;;;;;;2.20;1.40;;;;;;;;;;5033169;28;20049;-78
2023/06/14 09:29:51;;;;;;;2.35;1.52;;;;;;;;;;5049640;28;20389;-78
2023/06/14 09:32:17;;;;;;;2.38;1.30;;;;;;;;;;5049669;28;20056;-77
2023/06/14 09:34:42;;;;;;;2.05;1.50;;;;;;;;;;5033652;28;20484;-77
2023/06/14 09:37:07;;;;;;;4.35;1.50;;;;;;;;;;5044437;28;20041;-76
2023/06/14 09:39:33;;;;;;;11.95;1.63;;;;;;;;;;5013021;28;20040;-76
2023/06/14 09:41:58;;;;;;;10.35;1.88;;;;;;;;;;5014307;28;20040;-77
2023/06/14 09:44:28;;;;;;;11.00;1.98;;;;;;;;;;5012852;28;20120;-76
2023/06/14 09:46:55;;;;;;;7.18;1.60;;;;;;;;;;5013532;28;20038;-75
2023/06/14 09:49:21;;;;;;;8.93;1.73;;;;;;;;;;5048185;28;20033;-76
2023/06/14 09:51:50;;;;;;;10.52;1.40;;;;;;;;;;5032105;28;20495;-76
2023/06/14 09:54:16;;;;;;;8.13;1.80;;;;;;;;;;5031807;28;20029;-76
2023/06/14 09:56:44;;;;;;;6.72;1.60;;;;;;;;;;5032144;28;20033;-76
2023/06/14 09:59:10;;;;;;;9.38;1.58;;;;;;;;;;5033428;28;20100;-76
2023/06/14 10:01:41;;;;;;;7.75;1.75;;;;;;;;;;5031833;28;20025;-75
2023/06/14 10:04:08;;;;;;;4.40;1.60;;;;;;;;;;5049194;28;20052;-76
2023/06/14 10:06:37;;;;;;;6.00;1.50;;;;;;;;;;5047803;28;20056;-76
2023/06/14 10:09:05;;;;;;;3.15;1.10;;;;;;;;;;5048253;28;20026;-76
2023/06/14 10:11:31;;;;;;;12.00;1.50;;;;;;;;;;5031477;28;20068;-76
2023/06/14 10:13:57;;;;;;;6.68;1.38;;;;;;;;;;5031264;28;20056;-76
2023/06/14 10:16:31;;;;;;;4.05;1.80;;;;;;;;;;5048134;28;20036;-76
2023/06/14 10:19:14;;;;;;;3.28;1.83;;;;;;;;;;5031583;28;20029;-76
2023/06/14 10:21:50;;;;;;;5.43;1.98;;;;;;;;;;5048514;28;20067;-76
2023/06/14 10:24:18;;;;;;;4.55;1.90;;;;;;;;;;5032200;28;20116;-77
2023/06/14 10:26:57;;;;;;;3.58;2.22;;;;;;;;;;5034227;28;20052;-77
2023/06/14 10:29:23;;;;;;;4.15;2.08;;;;;;;;;;5050518;28;20230;-76
2023/06/14 10:31:50;;;;;;;3.38;2.20;;;;;;;;;;5034378;28;20072;-77
2023/06/14 10:34:23;;;;;;;14.55;7.57;;;;;;;;;;5033966;28;20049;-77
2023/06/14 10:37:13;;;;;;;14.75;10.38;;;;;;;;;;5033925;28;20025;-77
2023/06/14 10:39:48;;;;;;;14.45;8.38;;;;;;;;;;5032399;28;20041;-77
2023/06/14 10:42:14;;;;;;;12.00;8.82;;;;;;;;;;5015961;28;20029;-76
2023/06/14 10:44:51;;;;;;;12.75;8.80;;;;;;;;;;5047889;28;20050;-79
2023/06/14 10:47:37;;;;;;;11.68;7.70;;;;;;;;;;5048072;28;20469;-78
2023/06/14 10:50:06;;;;;;;9.57;7.50;;;;;;;;;;5032557;28;20033;-78
2023/06/14 10:52:38;;;;;;;11.20;7.30;;;;;;;;;;5048267;28;20040;-77
2023/06/14 10:55:10;;;;;;;8.48;5.70;;;;;;;;;;5031465;28;20110;-77
2023/06/14 10:57:38;;;;;;;8.20;5.53;;;;;;;;;;5032591;28;20037;-77
2023/06/14 11:00:12;;;;;;;11.05;7.38;;;;;;;;;;5031206;28;20082;-77
2023/06/14 11:03:22;;;;;;;7.60;6.00;;;;;;;;;;5031319;28;20103;-77
2023/06/14 11:05:47;;;;;;;10.32;6.38;;;;;;;;;;4991344;28;20049;-77
2023/06/14 11:08:38;;;;;;;15.88;6.10;;;;;;;;;;4991017;28;20533;-78
2023/06/14 11:11:08;;;;;;;9.48;6.07;;;;;;;;;;4991244;28;20498;-77
2023/06/14 11:13:34;;;;;;;8.10;5.32;;;;;;;;;;4991526;28;20034;-77
2023/06/14 11:16:00;;;;;;;9.18;5.20;;;;;;;;;;4991042;28;20035;-77
2023/06/14 11:18:27;;;;;;;7.88;4.75;;;;;;;;;;4976934;28;20100;-77
2023/06/14 11:20:53;;;;;;;7.72;4.65;;;;;;;;;;4978232;28;20058;-77
2023/06/14 11:23:18;;;;;;;6.00;3.85;;;;;;;;;;4978241;28;20493;-77
2023/06/14 11:25:49;;;;;;;7.50;3.90;;;;;;;;;;4994554;28;20048;-77
2023/06/14 11:28:14;;;;;;;4.95;3.90;;;;;;;;;;4993729;28;20026;-77
2023/06/14 11:30:40;;;;;;;6.03;3.70;;;;;;;;;;4994716;28;20042;-76
2023/06/14 11:33:09;;;;;;;7.15;4.00;;;;;;;;;;4977903;28;20057;-77
2023/06/14 11:35:35;;;;;;;6.55;4.18;;;;;;;;;;4998932;28;20061;-76
2023/06/14 11:38:01;;;;;;;6.18;3.80;;;;;;;;;;5034361;28;20065;-77
2023/06/14 11:40:27;;;;;;;5.15;3.22;;;;;;;;;;5050951;28;20045;-77
2023/06/14 11:43:00;;;;;;;5.68;3.72;;;;;;;;;;5051492;28;20026;-76
2023/06/14 11:45:26;;;;;;;4.85;3.30;;;;;;;;;;5051165;28;20056;-77
2023/06/14 11:47:56;;;;;;;3.45;3.15;;;;;;;;;;5034146;28;20029;-77
2023/06/14 11:50:21;;;;;;;5.55;2.67;;;;;;;;;;5050652;28;20040;-76
2023/06/14 11:52:53;;;;;;;3.83;2.88;;;;;;;;;;5034206;28;20029;-77
2023/06/14 11:55:18;;;;;;;5.90;2.70;;;;;;;;;;5051079;28;20108;-77
2023/06/14 11:57:46;;;;;;;5.95;2.70;;;;;;;;;;5051295;28;20104;-76
2023/06/14 12:00:12;;;;;;;4.03;2.35;;;;;;;;;;5034380;28;20377;-76
2023/06/14 12:02:40;;;;;;;4.18;2.30;;;;;;;;;;5034412;28;20036;-77
2023/06/14 12:05:09;;;;;;;6.15;2.13;;;;;;;;;;5050735;28;20018;-76
2023/06/14 12:07:37;;;;;;;2.38;2.00;;;;;;;;;;5035782;28;20151;-77
2023/06/14 12:10:07;;;;;;;6.63;2.38;;;;;;;;;;5051377;28;20082;-76
2023/06/14 12:12:35;;;;;;;3.30;2.05;;;;;;;;;;5034552;28;20388;-76
2023/06/14 12:15:06;;;;;;;4.15;2.05;;;;;;;;;;5034452;28;20017;-77
2023/06/14 12:17:35;;;;;;;2.25;1.73;;;;;;;;;;5034076;28;20032;-77
2023/06/14 12:20:08;;;;;;;3.70;1.90;;;;;;;;;;5034173;28;20030;-77
2023/06/14 12:22:34;;;;;;;2.63;1.90;;;;;;;;;;5050395;28;20032;-76
2023/06/14 12:24:59;;;;;;;3.08;1.75;;;;;;;;;;5035257;28;20391;-77
2023/06/14 12:27:28;;;;;;;7.05;1.70;;;;;;;;;;5035732;28;20083;-77
2023/06/14 12:30:04;;;;;;;1.92;1.73;;;;;;;;;;5049780;28;20025;-77
2023/06/14 12:32:30;;;;;;;2.28;1.65;;;;;;;;;;5050532;28;20048;-77
2023/06/14 12:34:55;;;;;;;2.40;1.70;;;;;;;;;;5050429;28;20472;-77
2023/06/14 12:37:21;;;;;;;5.95;1.65;;;;;;;;;;5050435;28;20544;-77
2023/06/14 12:39:46;;;;;;;2.25;1.80;;;;;;;;;;5050764;28;20095;-76
2023/06/14 12:42:14;;;;;;;3.60;1.50;;;;;;;;;;5051485;28;20068;-77
2023/06/14 12:44:40;;;;;;;3.05;1.63;;;;;;;;;;5034427;28;20099;-77
2023/06/14 12:47:09;;;;;;;3.25;1.50;;;;;;;;;;5033754;28;20412;-77
2023/06/14 12:49:34;;;;;;;6.18;2.45;;;;;;;;;;5041503;28;20026;-77
2023/06/14 12:51:59;;;;;;;7.88;3.10;;;;;;;;;;5014192;28;20057;-77
2023/06/14 12:54:27;;;;;;;14.30;3.42;;;;;;;;;;5030761;28;20034;-76
2023/06/14 12:56:54;;;;;;;13.05;3.22;;;;;;;;;;5014770;28;20041;-77
2023/06/14 12:59:20;;;;;;;5.97;2.33;;;;;;;;;;5013807;28;20033;-77
2023/06/14 13:01:47;;;;;;;12.40;3.00;;;;;;;;;;5015612;28;20025;-78
2023/06/14 13:04:12;;;;;;;11.65;2.88;;;;;;;;;;5015437;28;20030;-77
2023/06/14 13:06:38;;;;;;;10.73;2.80;;;;;;;;;;5030274;28;20084;-77
2023/06/14 13:09:05;;;;;;;5.95;2.45;;;;;;;;;;5013646;28;20552;-76
2023/06/14 13:11:30;;;;;;;10.75;2.30;;;;;;;;;;5013779;28;20029;-77
2023/06/14 13:13:56;;;;;;;15.73;2.60;;;;;;;;;;5014937;28;20044;-76
2023/06/14 13:16:21;;;;;;;8.65;2.65;;;;;;;;;;5014164;28;20092;-77
2023/06/14 13:18:47;;;;;;;9.35;2.63;;;;;;;;;;5015334;28;20029;-77
2023/06/14 13:21:12;;;;;;;8.82;2.85;;;;;;;;;;5031103;28;20087;-77
2023/06/14 13:23:37;;;;;;;7.65;2.83;;;;;;;;;;5013611;28;20025;-78
2023/06/14 13:26:03;;;;;;;8.35;2.45;;;;;;;;;;5030267;28;20033;-76
2023/06/14 13:28:28;;;;;;;7.05;2.33;;;;;;;;;;5014815;28;20030;-77
2023/06/14 13:30:55;;;;;;;9.52;3.08;;;;;;;;;;4997716;28;20030;-77
2023/06/14 13:33:21;;;;;;;7.80;2.25;;;;;;;;;;5029711;28;20030;-78
2023/06/14 13:35:46;;;;;;;6.88;2.15;;;;;;;;;;5030406;28;20157;-78
2023/06/14 13:38:12;;;;;;;6.78;2.22;;;;;;;;;;5014849;28;20461;-77
2023/06/14 13:40:37;;;;;;;5.50;1.85;;;;;;;;;;5013151;28;20529;-77
2023/06/14 13:43:03;;;;;;;4.55;2.00;;;;;;;;;;5034087;28;20111;-77
2023/06/14 13:45:28;;;;;;;4.07;1.75;;;;;;;;;;5049135;28;20092;-77
2023/06/14 13:47:54;;;;;;;4.28;1.90;;;;;;;;;;5032791;28;20512;-77
2023/06/14 13:50:20;;;;;;;5.95;1.75;;;;;;;;;;5032500;28;20484;-77
2023/06/14 13:52:46;;;;;;;2.08;1.50;;;;;;;;;;5049360;28;20040;-77
2023/06/14 13:55:11;;;;;;;7.28;2.08;;;;;;;;;;5034001;28;20056;-77
2023/06/14 13:57:36;;;;;;;2.67;1.42;;;;;;;;;;5034020;28;20388;-77
2023/06/14 14:00:03;;;;;;;3.45;1.40;;;;;;;;;;5033819;28;20472;-78
2023/06/14 14:02:29;;;;;;;3.75;1.80;;;;;;;;;;5033883;28;20538;-77
2023/06/14 14:04:55;;;;;;;2.15;1.50;;;;;;;;;;5032260;28;20033;-78
2023/06/14 14:07:21;;;;;;;2.03;1.30;;;;;;;;;;5034277;28;20377;-78
2023/06/14 14:09:47;;;;;;;4.05;2.08;;;;;;;;;;5033145;28;20038;-78
2023/06/14 14:12:14;;;;;;;11.23;1.40;;;;;;;;;;5032440;28;20029;-78
2023/06/14 14:14:39;;;;;;;3.42;1.40;;;;;;;;;;5033606;28;20022;-78
2023/06/14 14:17:05;;;;;;;4.18;1.27;;;;;;;;;;5034211;28;20026;-77
2023/06/14 14:19:31;;;;;;;3.03;1.60;;;;;;;;;;5049732;28;20028;-77
2023/06/14 14:21:56;;;;;;;5.18;1.40;;;;;;;;;;5026316;28;20025;-77
2023/06/14 14:24:21;;;;;;;2.42;1.38;;;;;;;;;;5033499;28;20041;-77
2023/06/14 14:26:48;;;;;;;3.95;1.35;;;;;;;;;;5043440;28;20484;-77
2023/06/14 14:29:14;;;;;;;5.72;1.63;;;;;;;;;;5013895;28;20022;-77
2023/06/14 14:31:39;;;;;;;6.10;1.60;;;;;;;;;;5017998;28;20069;-78
2023/06/14 14:34:05;;;;;;;3.70;1.35;;;;;;;;;;5049956;28;20116;-77
2023/06/14 14:36:30;;;;;;;2.55;1.30;;;;;;;;;;5049632;28;20032;-77
2023/06/14 14:38:56;;;;;;;3.40;1.38;;;;;;;;;;5032674;28;20026;-78